createdAt,value
2018-12-29T00:00:50.144Z,2.70
2018-12-29T00:03:32.210Z,2.80
2018-12-29T00:06:13.979Z,2.80
2018-12-29T00:08:56.425Z,2.80
2018-12-29T00:11:38.399Z,2.70
2018-12-29T00:14:20.652Z,2.70
2018-12-29T00:17:03.255Z,2.70
2018-12-29T00:19:44.954Z,2.70
2018-12-29T00:22:28.186Z,2.60
2018-12-29T00:25:10.363Z,2.70
2018-12-29T00:27:52.487Z,2.60
2018-12-29T00:30:34.698Z,2.70
2018-12-29T00:33:16.533Z,2.70
2018-12-29T00:35:58.694Z,2.70
2018-12-29T00:38:40.370Z,2.60
2018-12-29T00:41:22.275Z,2.60
2018-12-29T00:44:04.821Z,2.70
2018-12-29T00:46:35.205Z,2.70
2018-12-29T00:49:16.597Z,2.60
2018-12-29T00:51:58.386Z,2.70
2018-12-29T00:54:40.346Z,2.70
2018-12-29T00:57:23.924Z,2.70
2018-12-29T01:00:06.111Z,2.70
2018-12-29T01:02:48.570Z,2.70
2018-12-29T01:05:30.635Z,2.70
2018-12-29T01:08:12.712Z,2.80
2018-12-29T01:10:54.950Z,2.80
2018-12-29T01:13:37.012Z,2.80
2018-12-29T01:16:19.163Z,2.70
2018-12-29T01:18:49.421Z,2.70
2018-12-29T01:21:39.065Z,2.60
2018-12-29T01:24:21.266Z,2.70
2018-12-29T01:27:03.413Z,2.70
2018-12-29T01:29:45.643Z,2.70
2018-12-29T01:32:27.367Z,2.70
2018-12-29T01:35:08.995Z,2.70
2018-12-29T01:37:51.239Z,2.70
2018-12-29T01:40:34.606Z,2.90
2018-12-29T01:43:16.645Z,2.80
2018-12-29T01:45:59.174Z,2.90
2018-12-29T01:48:41.345Z,2.80
2018-12-29T01:51:23.445Z,2.90
2018-12-29T01:54:05.726Z,2.90
2018-12-29T01:56:47.909Z,2.80
2018-12-29T01:59:30.257Z,2.90
2018-12-29T02:02:12.330Z,2.90
2018-12-29T02:04:54.497Z,2.90
2018-12-29T02:07:36.609Z,2.90
2018-12-29T02:10:18.812Z,3.00
2018-12-29T02:13:01.049Z,3.00
2018-12-29T02:15:43.205Z,3.00
2018-12-29T02:18:25.203Z,3.00
2018-12-29T02:20:55.499Z,3.00
2018-12-29T02:23:45.216Z,3.00
2018-12-29T02:26:15.481Z,2.90
2018-12-29T02:29:04.744Z,2.90
2018-12-29T02:31:47.102Z,2.90
2018-12-29T02:34:17.848Z,2.80
2018-12-29T02:36:59.873Z,2.80
2018-12-29T02:39:42.322Z,2.90
2018-12-29T02:42:12.614Z,2.80
2018-12-29T02:45:01.820Z,2.90
2018-12-29T02:47:45.344Z,2.80
2018-12-29T02:50:27.161Z,2.80
2018-12-29T02:53:08.721Z,2.80
2018-12-29T02:55:50.544Z,2.80
2018-12-29T02:58:32.692Z,2.70
2018-12-29T03:01:14.385Z,2.70
2018-12-29T03:03:58.738Z,2.70
2018-12-29T03:06:40.750Z,2.80
2018-12-29T03:09:22.597Z,2.80
2018-12-29T03:12:06.343Z,2.70
2018-12-29T03:14:48.632Z,2.70
2018-12-29T03:17:30.838Z,2.70
2018-12-29T03:20:12.902Z,2.70
2018-12-29T03:22:55.298Z,2.80
2018-12-29T03:25:38.349Z,2.70
2018-12-29T03:28:20.612Z,2.80
2018-12-29T03:31:02.903Z,2.80
2018-12-29T03:33:44.824Z,2.80
2018-12-29T03:36:27.670Z,2.80
2018-12-29T03:39:09.522Z,2.80
2018-12-29T03:41:57.711Z,2.70
2018-12-29T03:44:40.313Z,2.70
2018-12-29T03:47:11.041Z,2.70
2018-12-29T03:50:00.386Z,2.60
2018-12-29T03:52:30.734Z,2.60
2018-12-29T03:55:13.347Z,2.70
2018-12-29T03:57:55.518Z,2.70
2018-12-29T04:00:37.463Z,2.80
2018-12-29T04:03:19.491Z,2.70
2018-12-29T04:06:01.253Z,2.70
2018-12-29T04:08:44.083Z,2.70
2018-12-29T04:11:25.708Z,2.60
2018-12-29T04:14:07.806Z,2.60
2018-12-29T04:16:50.711Z,2.60
2018-12-29T04:19:32.832Z,2.60
2018-12-29T04:22:15.847Z,2.60
2018-12-29T04:24:57.591Z,2.70
2018-12-29T04:27:39.552Z,2.70
2018-12-29T04:30:22.194Z,2.60
2018-12-29T04:33:04.835Z,2.70
2018-12-29T04:35:46.488Z,2.60
2018-12-29T04:38:28.196Z,2.60
2018-12-29T04:41:10.143Z,2.60
2018-12-29T04:43:52.333Z,2.60
2018-12-29T04:46:34.251Z,2.60
2018-12-29T04:49:16.161Z,2.60
2018-12-29T04:51:58.193Z,2.60
2018-12-29T04:54:40.174Z,2.60
2018-12-29T04:57:22.499Z,2.60
2018-12-29T05:00:05.311Z,2.60
2018-12-29T05:02:47.798Z,2.60
2018-12-29T05:05:29.442Z,2.60
2018-12-29T05:08:11.186Z,2.60
2018-12-29T05:10:53.224Z,2.70
2018-12-29T05:13:35.458Z,2.70
2018-12-29T05:16:17.648Z,2.70
2018-12-29T05:18:59.703Z,2.70
2018-12-29T05:21:42.917Z,2.70
2018-12-29T05:24:24.379Z,2.70
2018-12-29T05:30:12.113Z,2.80
2018-12-29T05:32:54.193Z,2.70
2018-12-29T05:35:36.263Z,2.80
2018-12-29T05:38:18.123Z,2.80
2018-12-29T05:41:00.108Z,2.90
2018-12-29T05:43:41.974Z,2.90
2018-12-29T05:46:24.032Z,2.80
2018-12-29T05:49:06.206Z,2.80
2018-12-29T05:51:47.590Z,2.80
2018-12-29T05:54:29.859Z,2.90
2018-12-29T05:57:11.767Z,2.90
2018-12-29T05:59:53.717Z,2.90
2018-12-29T06:02:35.589Z,3.00
2018-12-29T06:05:17.539Z,2.90
2018-12-29T06:07:59.167Z,3.00
2018-12-29T06:10:41.341Z,2.90
2018-12-29T06:13:22.769Z,3.00
2018-12-29T06:16:05.229Z,3.00
2018-12-29T06:18:47.065Z,3.00
2018-12-29T06:21:29.198Z,2.90
2018-12-29T06:24:11.408Z,2.90
2018-12-29T06:26:53.216Z,3.00
2018-12-29T06:29:35.104Z,3.00
2018-12-29T06:32:17.025Z,3.00
2018-12-29T06:34:58.933Z,3.00
2018-12-29T06:37:40.842Z,2.90
2018-12-29T06:40:22.719Z,2.90
2018-12-29T06:43:04.783Z,3.10
2018-12-29T06:45:46.878Z,3.10
2018-12-29T06:48:28.849Z,3.10
2018-12-29T06:51:10.917Z,3.00
2018-12-29T06:53:52.371Z,3.00
2018-12-29T06:56:34.356Z,3.00
2018-12-29T06:59:16.698Z,3.00
2018-12-29T07:01:59.019Z,3.00
2018-12-29T07:04:40.829Z,3.00
2018-12-29T07:07:22.872Z,3.00
2018-12-29T07:10:04.516Z,3.00
2018-12-29T07:12:46.182Z,3.00
2018-12-29T07:15:27.888Z,3.00
2018-12-29T07:18:09.994Z,3.00
2018-12-29T07:20:51.917Z,3.00
2018-12-29T07:26:14.777Z,3.00
2018-12-29T07:28:56.988Z,3.00
2018-12-29T07:31:39.071Z,3.00
2018-12-29T07:34:21.317Z,2.90
2018-12-29T07:37:03.167Z,3.00
2018-12-29T07:39:44.881Z,3.00
2018-12-29T07:42:26.728Z,3.00
2018-12-29T07:45:08.497Z,3.00
2018-12-29T07:47:50.659Z,2.90
2018-12-29T07:50:32.619Z,2.90
2018-12-29T07:53:14.486Z,3.00
2018-12-29T07:55:56.384Z,3.00
2018-12-29T07:58:26.741Z,3.00
2018-12-29T08:01:15.983Z,3.00
2018-12-29T08:03:57.866Z,3.10
2018-12-29T08:06:28.112Z,3.00
2018-12-29T08:09:10.173Z,3.00
2018-12-29T08:11:52.369Z,3.10
2018-12-29T08:14:34.638Z,3.10
2018-12-29T08:17:17.445Z,3.10
2018-12-29T08:19:59.845Z,3.10
2018-12-29T08:22:30.206Z,3.10
2018-12-29T08:25:19.513Z,3.10
2018-12-29T08:28:01.376Z,3.20
2018-12-29T08:30:31.669Z,3.30
2018-12-29T08:33:13.244Z,3.30
2018-12-29T08:35:55.150Z,3.40
2018-12-29T08:38:37.407Z,3.40
2018-12-29T08:41:19.690Z,3.40
2018-12-29T08:44:02.759Z,3.40
2018-12-29T08:46:33.095Z,3.40
2018-12-29T08:49:24.644Z,3.50
2018-12-29T08:52:06.674Z,3.50
2018-12-29T08:54:51.360Z,3.50
2018-12-29T08:57:33.655Z,3.60
2018-12-29T09:00:15.762Z,3.60
2018-12-29T09:02:57.645Z,3.60
2018-12-29T09:05:39.491Z,3.70
2018-12-29T09:08:21.358Z,3.80
2018-12-29T09:11:03.702Z,3.80
2018-12-29T09:13:34.026Z,3.80
2018-12-29T09:16:15.604Z,3.80
2018-12-29T09:18:57.510Z,3.90
2018-12-29T09:21:39.327Z,3.90
2018-12-29T09:24:21.326Z,4.00
2018-12-29T09:27:03.417Z,4.10
2018-12-29T09:29:46.016Z,4.20
2018-12-29T09:32:28.518Z,4.20
2018-12-29T09:35:10.028Z,4.30
2018-12-29T09:37:52.174Z,4.30
2018-12-29T09:40:34.071Z,4.30
2018-12-29T09:43:15.854Z,4.30
2018-12-29T09:45:46.100Z,4.30
2018-12-29T09:48:35.297Z,4.30
2018-12-29T09:51:17.115Z,4.40
2018-12-29T09:53:59.260Z,4.50
2018-12-29T09:56:41.975Z,4.60
2018-12-29T09:59:24.414Z,4.60
2018-12-29T10:02:06.333Z,4.60
2018-12-29T10:04:49.353Z,4.60
2018-12-29T10:07:31.283Z,4.60
2018-12-29T10:10:13.234Z,4.70
2018-12-29T10:12:55.222Z,4.70
2018-12-29T10:15:37.218Z,4.70
2018-12-29T10:18:19.704Z,4.80
2018-12-29T10:21:01.883Z,4.70
2018-12-29T10:23:43.732Z,4.90
2018-12-29T10:26:25.652Z,4.80
2018-12-29T10:29:07.593Z,4.90
2018-12-29T10:31:49.821Z,5.00
2018-12-29T10:34:31.774Z,5.00
2018-12-29T10:37:14.168Z,5.00
2018-12-29T10:39:56.174Z,4.90
2018-12-29T10:42:38.129Z,5.00
2018-12-29T10:45:20.065Z,5.00
2018-12-29T10:47:50.443Z,5.00
2018-12-29T10:50:32.570Z,5.00
2018-12-29T10:53:14.491Z,5.00
2018-12-29T10:55:56.834Z,5.00
2018-12-29T10:58:39.953Z,5.10
2018-12-29T11:01:22.119Z,5.10
2018-12-29T11:04:04.654Z,5.20
2018-12-29T11:06:47.327Z,5.20
2018-12-29T11:09:29.731Z,5.20
2018-12-29T11:12:11.219Z,5.30
2018-12-29T11:14:53.354Z,5.30
2018-12-29T11:17:41.983Z,5.40
2018-12-29T11:20:18.962Z,5.30
2018-12-29T11:23:01.232Z,5.30
2018-12-29T11:25:43.399Z,5.30
2018-12-29T11:28:25.380Z,5.20
2018-12-29T11:31:07.707Z,5.20
2018-12-29T11:33:49.718Z,5.20
2018-12-29T11:36:31.723Z,5.20
2018-12-29T11:39:13.163Z,5.30
2018-12-29T11:41:55.387Z,5.30
2018-12-29T11:44:36.963Z,5.50
2018-12-29T11:47:18.907Z,5.50
2018-12-29T11:50:00.994Z,5.50
2018-12-29T11:52:42.947Z,5.60
2018-12-29T11:55:13.302Z,5.60
2018-12-29T11:58:02.569Z,5.70
2018-12-29T12:00:44.929Z,5.80
2018-12-29T12:03:28.086Z,6.00
2018-12-29T12:06:10.318Z,6.10
2018-12-29T12:08:41.047Z,6.30
2018-12-29T12:11:30.432Z,6.50
2018-12-29T12:14:12.697Z,6.60
2018-12-29T12:16:55.188Z,6.70
2018-12-29T12:19:37.517Z,6.80
2018-12-29T12:22:19.502Z,7.00
2018-12-29T12:25:01.404Z,7.00
2018-12-29T12:27:43.556Z,7.10
2018-12-29T12:30:26.367Z,7.10
2018-12-29T12:33:08.230Z,7.30
2018-12-29T12:35:50.468Z,7.30
2018-12-29T12:38:33.002Z,7.40
2018-12-29T12:41:15.303Z,7.40
2018-12-29T12:43:58.004Z,7.30
2018-12-29T12:46:39.643Z,7.40
2018-12-29T12:49:23.424Z,7.40
2018-12-29T12:52:05.775Z,7.40
2018-12-29T12:54:47.769Z,7.40
2018-12-29T12:57:30.246Z,7.40
2018-12-29T13:00:12.599Z,7.40
2018-12-29T13:02:54.734Z,7.30
2018-12-29T13:05:36.561Z,7.30
2018-12-29T13:08:18.365Z,7.40
2018-12-29T13:11:00.869Z,7.40
2018-12-29T13:13:44.078Z,7.40
2018-12-29T13:16:26.031Z,7.40
2018-12-29T13:19:09.097Z,7.40
2018-12-29T13:21:50.900Z,7.50
2018-12-29T13:24:33.265Z,7.50
2018-12-29T13:27:15.190Z,7.50
2018-12-29T13:29:58.026Z,7.60
2018-12-29T13:32:40.104Z,7.50
2018-12-29T13:35:24.988Z,7.50
2018-12-29T13:38:06.454Z,7.50
2018-12-29T13:40:48.767Z,7.50
2018-12-29T13:43:30.529Z,7.60
2018-12-29T13:46:12.939Z,7.50
2018-12-29T13:48:54.979Z,7.60
2018-12-29T13:51:38.837Z,7.60
2018-12-29T13:54:23.202Z,7.60
2018-12-29T13:56:54.003Z,7.60
2018-12-29T13:59:43.570Z,7.60
2018-12-29T14:02:25.871Z,7.60
2018-12-29T14:05:10.030Z,7.50
2018-12-29T14:07:52.122Z,7.50
2018-12-29T14:10:33.972Z,7.50
2018-12-29T14:13:16.281Z,7.50
2018-12-29T14:15:58.094Z,7.40
2018-12-29T14:18:40.432Z,7.50
2018-12-29T14:21:11.546Z,7.40
2018-12-29T14:23:57.074Z,7.40
2018-12-29T14:26:39.374Z,7.40
2018-12-29T14:29:21.593Z,7.40
2018-12-29T14:32:03.560Z,7.40
2018-12-29T14:34:45.830Z,7.40
2018-12-29T14:37:35.320Z,7.30
2018-12-29T14:40:17.443Z,7.30
2018-12-29T14:42:59.654Z,7.20
2018-12-29T14:45:42.207Z,7.10
2018-12-29T14:48:23.989Z,7.10
2018-12-29T14:51:06.005Z,7.10
2018-12-29T14:53:48.246Z,7.00
2018-12-29T14:56:30.256Z,7.00
2018-12-29T14:59:12.607Z,6.90
2018-12-29T15:01:54.548Z,6.90
2018-12-29T15:04:36.328Z,6.80
2018-12-29T15:07:18.175Z,6.80
2018-12-29T15:09:59.906Z,6.80
2018-12-29T15:12:42.098Z,6.80
2018-12-29T15:15:24.062Z,6.70
2018-12-29T15:18:05.989Z,6.70
2018-12-29T15:20:48.114Z,6.70
2018-12-29T15:23:30.197Z,6.70
2018-12-29T15:26:12.419Z,6.70
2018-12-29T15:28:54.594Z,6.70
2018-12-29T15:31:24.946Z,6.80
2018-12-29T15:34:06.623Z,6.80
2018-12-29T15:36:50.333Z,6.80
2018-12-29T15:39:36.842Z,6.80
2018-12-29T15:42:19.107Z,6.70
2018-12-29T15:45:01.231Z,6.70
2018-12-29T15:47:31.595Z,6.70
2018-12-29T15:50:21.349Z,6.70
2018-12-29T15:53:03.452Z,6.70
2018-12-29T15:55:45.376Z,6.70
2018-12-29T15:58:16.145Z,6.60
2018-12-29T16:00:57.748Z,6.60
2018-12-29T16:03:39.793Z,6.60
2018-12-29T16:06:22.086Z,6.60
2018-12-29T16:09:04.405Z,6.70
2018-12-29T16:11:46.076Z,6.70
2018-12-29T16:14:35.255Z,6.70
2018-12-29T16:17:00.220Z,6.70
2018-12-29T16:19:42.322Z,6.60
2018-12-29T16:22:24.976Z,6.70
2018-12-29T16:25:07.031Z,6.60
2018-12-29T16:27:37.405Z,6.60
2018-12-29T16:30:19.583Z,6.60
2018-12-29T16:33:01.794Z,6.50
2018-12-29T16:35:43.879Z,6.50
2018-12-29T16:38:26.644Z,6.40
2018-12-29T16:40:57.936Z,6.40
2018-12-29T16:44:07.472Z,6.30
2018-12-29T16:46:40.503Z,6.30
2018-12-29T16:49:30.164Z,6.30
2018-12-29T16:52:12.567Z,6.20
2018-12-29T16:54:42.909Z,6.20
2018-12-29T16:57:24.649Z,6.20
2018-12-29T17:00:06.696Z,6.20
2018-12-29T17:02:49.190Z,6.20
2018-12-29T17:05:31.286Z,6.20
2018-12-29T17:08:13.769Z,6.20
2018-12-29T17:10:55.950Z,6.30
2018-12-29T17:13:37.960Z,6.30
2018-12-29T17:16:09.259Z,6.30
2018-12-29T17:18:58.650Z,6.40
2018-12-29T17:21:40.198Z,6.40
2018-12-29T17:24:23.575Z,6.40
2018-12-29T17:27:05.708Z,6.50
2018-12-29T17:29:36.013Z,6.50
2018-12-29T17:32:06.412Z,6.60
2018-12-29T17:34:55.820Z,6.60
2018-12-29T17:37:37.488Z,6.60
2018-12-29T17:40:19.472Z,6.60
2018-12-29T17:43:01.395Z,6.70
2018-12-29T17:45:43.299Z,6.70
2018-12-29T17:48:25.849Z,6.80
2018-12-29T17:51:08.042Z,6.70
2018-12-29T17:53:50.109Z,6.70
2018-12-29T17:56:32.242Z,6.70
2018-12-29T17:59:14.671Z,6.70
2018-12-29T18:01:56.950Z,6.80
2018-12-29T18:04:27.287Z,6.80
2018-12-29T18:10:11.084Z,6.80
2018-12-29T18:12:54.933Z,6.80
2018-12-29T18:15:36.642Z,6.80
2018-12-29T18:18:07.123Z,6.90
2018-12-29T18:20:45.200Z,6.90
2018-12-29T18:23:34.552Z,6.90
2018-12-29T18:26:16.161Z,7.00
2018-12-29T18:28:58.184Z,7.10
2018-12-29T18:31:40.357Z,7.20
2018-12-29T18:34:22.548Z,7.30
2018-12-29T18:37:04.647Z,7.40
2018-12-29T18:39:46.956Z,7.40
2018-12-29T18:42:28.978Z,7.50
2018-12-29T18:45:10.893Z,7.50
2018-12-29T18:47:52.918Z,7.60
2018-12-29T18:50:35.082Z,7.60
2018-12-29T18:53:20.634Z,7.60
2018-12-29T18:55:51.071Z,7.60
2018-12-29T18:58:21.318Z,7.60
2018-12-29T19:00:51.608Z,7.70
2018-12-29T19:03:33.778Z,7.70
2018-12-29T19:06:15.629Z,7.70
2018-12-29T19:08:57.453Z,7.70
2018-12-29T19:11:27.911Z,7.70
2018-12-29T19:14:10.316Z,7.70
2018-12-29T19:16:52.170Z,7.70
2018-12-29T19:19:34.914Z,7.70
2018-12-29T19:22:16.918Z,7.70
2018-12-29T19:25:00.328Z,7.80
2018-12-29T19:27:43.225Z,7.80
2018-12-29T19:30:25.452Z,7.80
2018-12-29T19:33:09.177Z,7.80
2018-12-29T19:35:51.408Z,7.90
2018-12-29T19:38:33.878Z,7.90
2018-12-29T19:41:04.178Z,7.90
2018-12-29T19:43:54.028Z,7.90
2018-12-29T19:46:36.622Z,8.00
2018-12-29T19:49:18.753Z,7.90
2018-12-29T19:52:01.283Z,7.90
2018-12-29T19:54:43.773Z,8.00
2018-12-29T19:57:25.602Z,8.00
2018-12-29T19:59:55.882Z,8.10
2018-12-29T20:03:06.010Z,8.10
2018-12-29T20:05:55.129Z,8.20
2018-12-29T20:08:37.538Z,8.20
2018-12-29T20:11:19.893Z,8.20
2018-12-29T20:14:01.691Z,8.30
2018-12-29T20:16:43.911Z,8.30
2018-12-29T20:19:26.213Z,8.30
2018-12-29T20:21:56.529Z,8.30
2018-12-29T20:24:38.854Z,8.30
2018-12-29T20:27:21.163Z,8.30
2018-12-29T20:30:03.414Z,8.30
2018-12-29T20:32:45.557Z,8.30
2018-12-29T20:35:27.249Z,8.30
2018-12-29T20:37:58.341Z,8.30
2018-12-29T20:40:47.648Z,8.30
2018-12-29T20:43:29.920Z,8.30
2018-12-29T20:46:11.938Z,8.30
2018-12-29T20:48:42.710Z,8.30
2018-12-29T20:51:24.631Z,8.30
2018-12-29T20:53:55.206Z,8.30
2018-12-29T20:56:37.958Z,8.30
2018-12-29T20:59:20.027Z,8.30
2018-12-29T21:02:01.850Z,8.30
2018-12-29T21:04:44.327Z,8.40
2018-12-29T21:07:26.524Z,8.40
2018-12-29T21:10:08.582Z,8.40
2018-12-29T21:12:51.070Z,8.50
2018-12-29T21:15:33.280Z,8.40
2018-12-29T21:18:15.477Z,8.40
2018-12-29T21:20:57.569Z,8.50
2018-12-29T21:23:40.134Z,8.50
2018-12-29T21:26:21.990Z,8.50
2018-12-29T21:29:04.115Z,8.60
2018-12-29T21:31:46.447Z,8.60
2018-12-29T21:34:28.688Z,8.60
2018-12-29T21:37:11.079Z,8.70
2018-12-29T21:39:53.038Z,8.70
2018-12-29T21:42:35.431Z,8.60
2018-12-29T21:45:17.550Z,8.70
2018-12-29T21:48:00.827Z,8.70
2018-12-29T21:50:42.470Z,8.70
2018-12-29T21:53:24.472Z,8.70
2018-12-29T21:56:08.950Z,8.70
2018-12-29T21:58:39.626Z,8.70
2018-12-29T22:01:09.866Z,8.70
2018-12-29T22:03:41.973Z,8.70
2018-12-29T22:06:23.826Z,8.70
2018-12-29T22:09:06.368Z,8.80
2018-12-29T22:11:48.501Z,8.80
2018-12-29T22:14:30.482Z,8.80
2018-12-29T22:17:12.813Z,8.80
2018-12-29T22:19:55.021Z,8.90
2018-12-29T22:22:37.092Z,8.90
2018-12-29T22:25:19.300Z,8.90
2018-12-29T22:28:00.890Z,8.90
2018-12-29T22:30:43.279Z,8.90
2018-12-29T22:33:25.188Z,8.80
2018-12-29T22:36:06.768Z,8.90
2018-12-29T22:38:49.110Z,8.80
2018-12-29T22:44:33.676Z,8.80
2018-12-29T22:47:03.972Z,8.90
2018-12-29T22:49:46.200Z,8.80
2018-12-29T22:52:28.290Z,8.80
2018-12-29T22:54:58.668Z,8.80
2018-12-29T22:57:47.987Z,8.80
2018-12-29T23:00:37.232Z,8.70
2018-12-29T23:03:18.870Z,8.70
2018-12-29T23:05:49.192Z,8.80
2018-12-29T23:08:57.642Z,8.70
2018-12-29T23:11:39.225Z,8.70
2018-12-29T23:14:09.755Z,8.70
2018-12-29T23:16:51.549Z,8.80
2018-12-29T23:19:33.406Z,8.70
2018-12-29T23:22:15.522Z,8.70
2018-12-29T23:24:57.607Z,8.70
2018-12-29T23:27:39.832Z,8.70
2018-12-29T23:30:10.221Z,8.70
2018-12-29T23:32:59.806Z,8.60
2018-12-29T23:35:41.889Z,8.60
2018-12-29T23:38:24.172Z,8.60
2018-12-29T23:41:06.086Z,8.60
2018-12-29T23:43:48.055Z,8.50
2018-12-29T23:46:18.718Z,8.50
2018-12-29T23:49:08.074Z,8.40
2018-12-29T23:51:49.675Z,8.40
2018-12-29T23:54:31.638Z,8.30
2018-12-29T23:57:13.346Z,8.30
2018-12-29T23:59:55.220Z,8.30
